createdAt,value
2022-11-16T00:00:31.913Z,21.00
2022-11-16T00:02:30.842Z,20.94
2022-11-16T00:04:29.164Z,20.94
2022-11-16T00:06:27.429Z,20.88
2022-11-16T00:08:25.740Z,20.88
2022-11-16T00:10:23.773Z,20.81
2022-11-16T00:12:22.126Z,20.81
2022-11-16T00:14:20.553Z,20.75
2022-11-16T00:16:18.760Z,20.75
2022-11-16T00:18:17.096Z,20.75
2022-11-16T00:20:15.319Z,20.69
2022-11-16T00:22:13.507Z,20.69
2022-11-16T00:24:11.783Z,20.69
2022-11-16T00:26:10.007Z,20.63
2022-11-16T00:28:08.641Z,20.63
2022-11-16T00:30:07.719Z,20.56
2022-11-16T00:32:06.110Z,20.56
2022-11-16T00:34:04.346Z,20.56
2022-11-16T00:36:02.602Z,20.50
2022-11-16T00:38:00.915Z,20.50
2022-11-16T00:39:59.147Z,20.50
2022-11-16T00:41:57.471Z,20.50
2022-11-16T00:43:55.680Z,20.44
2022-11-16T00:45:54.113Z,20.44
2022-11-16T00:47:56.443Z,20.44
2022-11-16T00:49:57.680Z,20.38
2022-11-16T00:51:56.069Z,20.38
2022-11-16T00:53:54.474Z,20.38
2022-11-16T00:55:52.665Z,20.38
2022-11-16T00:57:50.913Z,20.31
2022-11-16T00:59:49.164Z,20.31
2022-11-16T01:01:47.482Z,20.31
2022-11-16T01:03:46.376Z,20.31
2022-11-16T01:05:44.440Z,20.31
2022-11-16T01:07:42.676Z,20.25
2022-11-16T01:09:40.941Z,20.25
2022-11-16T01:12:05.154Z,20.25
2022-11-16T01:14:03.174Z,20.25
2022-11-16T01:16:01.193Z,20.25
2022-11-16T01:17:59.222Z,20.25
2022-11-16T01:19:57.596Z,20.19
2022-11-16T01:21:56.051Z,20.19
2022-11-16T01:23:54.267Z,20.19
2022-11-16T01:25:52.690Z,20.19
2022-11-16T01:27:51.295Z,20.19
2022-11-16T01:29:49.610Z,20.19
2022-11-16T01:31:47.652Z,20.13
2022-11-16T01:33:45.679Z,20.13
2022-11-16T01:35:43.925Z,20.13
2022-11-16T01:37:42.221Z,20.13
2022-11-16T01:39:40.526Z,20.13
2022-11-16T01:41:38.800Z,20.13
2022-11-16T01:43:37.181Z,20.13
2022-11-16T01:45:35.479Z,20.13
2022-11-16T01:47:33.699Z,20.06
2022-11-16T01:49:32.003Z,20.06
2022-11-16T01:51:30.394Z,20.06
2022-11-16T01:53:28.619Z,20.06
2022-11-16T01:55:26.813Z,20.06
2022-11-16T01:57:25.240Z,20.06
2022-11-16T01:59:23.562Z,20.06
2022-11-16T02:01:21.631Z,20.00
2022-11-16T02:03:19.653Z,20.00
2022-11-16T02:05:18.081Z,20.00
2022-11-16T02:07:16.349Z,20.00
2022-11-16T02:09:31.877Z,20.00
2022-11-16T02:11:30.144Z,20.00
2022-11-16T02:13:28.514Z,20.00
2022-11-16T02:15:26.777Z,20.00
2022-11-16T02:17:24.100Z,19.94
2022-11-16T02:19:22.443Z,19.94
2022-11-16T02:21:20.667Z,19.94
2022-11-16T02:23:18.905Z,19.94
2022-11-16T02:25:17.118Z,19.94
2022-11-16T02:27:14.142Z,19.94
2022-11-16T02:36:08.129Z,19.94
2022-11-16T02:38:06.585Z,19.94
2022-11-16T02:40:04.853Z,19.94
2022-11-16T02:42:03.081Z,19.94
2022-11-16T02:44:01.288Z,19.88
2022-11-16T02:45:59.507Z,19.88
2022-11-16T02:47:57.814Z,19.94
2022-11-16T02:49:56.244Z,19.88
2022-11-16T02:51:54.262Z,19.94
2022-11-16T02:53:52.751Z,19.88
2022-11-16T02:55:50.781Z,19.88
2022-11-16T02:57:49.106Z,19.88
2022-11-16T02:59:47.159Z,19.88
2022-11-16T03:01:45.248Z,19.88
2022-11-16T03:03:43.496Z,19.88
2022-11-16T03:05:41.519Z,19.88
2022-11-16T03:07:39.627Z,19.88
2022-11-16T03:09:37.908Z,19.88
2022-11-16T03:11:53.490Z,19.88
2022-11-16T03:13:52.605Z,19.88
2022-11-16T03:15:50.653Z,19.88
2022-11-16T03:17:49.095Z,19.81
2022-11-16T03:19:47.523Z,19.81
2022-11-16T03:21:45.530Z,19.81
2022-11-16T03:23:43.567Z,19.81
2022-11-16T03:25:42.128Z,19.81
2022-11-16T03:27:40.423Z,19.81
2022-11-16T03:29:38.515Z,19.81
2022-11-16T03:31:36.589Z,19.81
2022-11-16T03:33:34.629Z,19.81
2022-11-16T03:35:32.937Z,19.81
2022-11-16T03:37:30.966Z,19.81
2022-11-16T03:39:29.005Z,19.81
2022-11-16T03:41:27.187Z,19.81
2022-11-16T03:43:25.180Z,19.81
2022-11-16T03:45:23.421Z,19.81
2022-11-16T03:47:21.482Z,19.81
2022-11-16T03:49:19.690Z,19.81
2022-11-16T03:51:17.967Z,19.75
2022-11-16T03:53:16.299Z,19.75
2022-11-16T03:55:14.503Z,19.75
2022-11-16T03:57:16.015Z,19.81
2022-11-16T03:59:14.366Z,19.75
2022-11-16T04:01:12.662Z,19.75
2022-11-16T04:03:11.020Z,19.75
2022-11-16T04:05:38.781Z,19.75
2022-11-16T04:07:54.377Z,19.75
2022-11-16T04:10:09.909Z,19.75
2022-11-16T04:12:25.806Z,19.75
2022-11-16T04:14:41.657Z,19.75
2022-11-16T04:16:57.366Z,19.75
2022-11-16T04:19:13.209Z,19.75
2022-11-16T04:21:28.479Z,19.75
2022-11-16T04:23:43.916Z,19.69
2022-11-16T04:25:42.139Z,19.75
2022-11-16T04:28:09.579Z,19.75
2022-11-16T04:30:07.621Z,19.69
2022-11-16T04:32:23.155Z,19.69
2022-11-16T04:34:38.646Z,19.69
2022-11-16T04:36:54.590Z,19.69
2022-11-16T04:38:53.007Z,19.69
2022-11-16T04:40:51.019Z,19.69
2022-11-16T04:42:48.347Z,19.69
2022-11-16T04:45:04.293Z,19.69
2022-11-16T04:47:08.440Z,19.69
2022-11-16T04:49:06.828Z,19.69
2022-11-16T04:51:05.243Z,19.69
2022-11-16T04:53:03.258Z,19.63
2022-11-16T04:55:01.496Z,19.63
2022-11-16T04:56:59.693Z,19.63
2022-11-16T04:58:57.707Z,19.63
2022-11-16T05:00:55.989Z,19.63
2022-11-16T05:02:59.730Z,19.63
2022-11-16T05:04:59.226Z,19.63
2022-11-16T05:06:57.344Z,19.63
2022-11-16T05:08:55.616Z,19.63
2022-11-16T05:10:53.815Z,19.63
2022-11-16T05:12:52.250Z,19.56
2022-11-16T05:14:50.265Z,19.63
2022-11-16T05:16:48.566Z,19.56
2022-11-16T05:19:06.778Z,20.63
2022-11-16T05:21:04.486Z,20.63
2022-11-16T05:23:02.663Z,20.75
2022-11-16T05:24:59.859Z,20.94
2022-11-16T05:26:58.167Z,21.06
2022-11-16T05:28:56.207Z,21.13
2022-11-16T05:30:54.233Z,21.25
2022-11-16T05:32:52.260Z,21.31
2022-11-16T05:34:50.701Z,21.25
2022-11-16T05:36:48.898Z,21.25
2022-11-16T05:38:47.160Z,21.31
2022-11-16T05:40:45.404Z,21.25
2022-11-16T05:42:43.434Z,21.19
2022-11-16T05:44:41.471Z,21.19
2022-11-16T05:46:39.912Z,21.06
2022-11-16T05:48:38.117Z,20.75
2022-11-16T05:50:42.331Z,20.75
2022-11-16T05:52:40.949Z,20.69
2022-11-16T05:54:39.259Z,20.56
2022-11-16T05:56:37.405Z,20.56
2022-11-16T05:58:35.676Z,20.50
2022-11-16T06:00:33.907Z,20.50
2022-11-16T06:02:31.982Z,20.38
2022-11-16T06:04:30.407Z,20.38
2022-11-16T06:06:28.469Z,20.31
2022-11-16T06:08:26.654Z,20.25
2022-11-16T06:10:24.715Z,20.25
2022-11-16T06:12:22.925Z,20.19
2022-11-16T06:14:21.180Z,20.19
2022-11-16T06:16:19.204Z,20.19
2022-11-16T06:18:17.269Z,20.19
2022-11-16T06:20:15.330Z,20.13
2022-11-16T06:22:13.588Z,20.13
2022-11-16T06:24:11.622Z,20.13
2022-11-16T06:26:09.858Z,20.13
2022-11-16T06:28:08.391Z,20.06
2022-11-16T06:30:06.550Z,20.06
2022-11-16T06:32:04.959Z,20.06
2022-11-16T06:34:03.182Z,20.06
2022-11-16T06:36:02.346Z,20.13
2022-11-16T06:38:00.605Z,20.13
2022-11-16T06:39:58.812Z,20.13
2022-11-16T06:41:56.845Z,20.13
2022-11-16T06:43:54.877Z,20.13
2022-11-16T06:45:53.102Z,20.13
2022-11-16T06:47:51.318Z,20.06
2022-11-16T06:49:49.368Z,20.06
2022-11-16T06:51:47.384Z,20.06
2022-11-16T06:53:45.422Z,20.06
2022-11-16T06:55:43.676Z,20.06
2022-11-16T06:57:41.919Z,20.00
2022-11-16T06:59:40.149Z,20.00
2022-11-16T07:01:38.412Z,22.25
2022-11-16T07:03:36.634Z,22.25
2022-11-16T07:05:34.647Z,22.69
2022-11-16T07:07:32.771Z,23.25
2022-11-16T07:09:30.894Z,24.13
2022-11-16T07:11:29.269Z,24.56
2022-11-16T07:13:27.504Z,24.94
2022-11-16T07:15:25.560Z,24.69
2022-11-16T07:17:23.858Z,24.63
2022-11-16T07:19:21.912Z,24.94
2022-11-16T07:21:19.983Z,25.13
2022-11-16T07:23:18.276Z,25.38
2022-11-16T07:25:16.522Z,25.63
2022-11-16T07:27:14.750Z,25.81
2022-11-16T07:29:13.854Z,26.00
2022-11-16T07:31:12.077Z,26.19
2022-11-16T07:33:10.366Z,26.44
2022-11-16T07:35:08.580Z,26.63
2022-11-16T07:37:07.018Z,26.75
2022-11-16T07:39:06.934Z,26.94
2022-11-16T07:41:04.959Z,27.13
2022-11-16T07:43:03.058Z,27.25
2022-11-16T07:45:01.264Z,27.38
2022-11-16T07:46:59.505Z,27.50
2022-11-16T07:48:57.707Z,27.56
2022-11-16T07:50:55.966Z,27.69
2022-11-16T07:52:54.183Z,27.75
2022-11-16T07:54:52.319Z,27.81
2022-11-16T07:56:52.924Z,27.88
2022-11-16T07:58:51.163Z,27.94
2022-11-16T08:00:49.309Z,27.94
2022-11-16T08:02:47.691Z,28.00
2022-11-16T08:04:45.947Z,28.00
2022-11-16T08:06:44.383Z,28.00
2022-11-16T08:08:42.629Z,27.94
2022-11-16T08:10:40.858Z,27.94
2022-11-16T08:12:39.073Z,27.94
2022-11-16T08:14:37.306Z,27.88
2022-11-16T08:16:35.582Z,27.88
2022-11-16T08:18:33.769Z,27.81
2022-11-16T08:20:33.120Z,27.81
2022-11-16T08:22:31.165Z,27.75
2022-11-16T08:24:29.303Z,27.75
2022-11-16T08:26:27.633Z,27.69
2022-11-16T08:28:25.711Z,27.63
2022-11-16T08:30:24.145Z,27.63
2022-11-16T08:32:22.209Z,27.56
2022-11-16T08:34:20.266Z,27.56
2022-11-16T08:36:18.530Z,27.56
2022-11-16T08:38:18.709Z,27.50
2022-11-16T08:40:16.927Z,27.44
2022-11-16T08:42:14.984Z,27.44
2022-11-16T08:44:13.331Z,27.44
2022-11-16T08:46:13.433Z,27.44
2022-11-16T08:48:11.782Z,27.44
2022-11-16T08:50:09.841Z,27.38
2022-11-16T08:52:08.072Z,27.44
2022-11-16T08:54:06.372Z,27.44
2022-11-16T08:56:05.803Z,27.44
2022-11-16T08:58:03.917Z,27.50
2022-11-16T09:00:02.222Z,27.50
2022-11-16T09:02:00.276Z,27.50
2022-11-16T09:03:58.757Z,27.56
2022-11-16T09:05:56.779Z,27.50
2022-11-16T09:07:55.035Z,27.56
2022-11-16T09:09:53.454Z,27.56
2022-11-16T09:11:53.887Z,27.56
2022-11-16T09:13:52.109Z,27.56
2022-11-16T09:15:50.144Z,27.56
2022-11-16T09:17:49.012Z,27.63
2022-11-16T09:19:47.309Z,28.75
2022-11-16T09:21:45.695Z,29.06
2022-11-16T09:23:44.112Z,29.31
2022-11-16T09:25:42.316Z,29.25
2022-11-16T09:27:40.409Z,28.56
2022-11-16T09:29:38.752Z,28.19
2022-11-16T09:31:37.506Z,28.06
2022-11-16T09:33:36.130Z,28.00
2022-11-16T09:35:34.592Z,27.94
2022-11-16T09:37:32.914Z,27.88
2022-11-16T09:39:34.831Z,27.88
2022-11-16T09:41:33.074Z,27.81
2022-11-16T09:43:31.805Z,27.75
2022-11-16T09:45:30.128Z,27.69
2022-11-16T09:47:28.592Z,27.63
2022-11-16T09:49:27.487Z,27.56
2022-11-16T09:51:25.950Z,27.56
2022-11-16T09:53:24.317Z,27.50
2022-11-16T09:55:22.767Z,27.50
2022-11-16T09:57:21.038Z,27.50
2022-11-16T09:59:19.303Z,27.44
2022-11-16T10:01:17.650Z,27.44
2022-11-16T10:03:15.914Z,27.44
2022-11-16T10:05:14.643Z,27.38
2022-11-16T10:07:12.895Z,27.44
2022-11-16T10:09:11.160Z,27.38
2022-11-16T10:11:09.221Z,27.38
2022-11-16T10:13:07.503Z,27.38
2022-11-16T10:15:07.214Z,27.38
2022-11-16T10:17:05.484Z,27.38
2022-11-16T10:19:03.723Z,27.38
2022-11-16T10:21:02.287Z,27.38
2022-11-16T10:23:00.601Z,27.38
2022-11-16T10:24:58.688Z,27.38
2022-11-16T10:26:56.911Z,27.38
2022-11-16T10:28:55.280Z,27.44
2022-11-16T10:30:53.564Z,27.44
2022-11-16T10:32:51.811Z,27.44
2022-11-16T10:34:49.888Z,27.44
2022-11-16T10:36:48.370Z,27.50
2022-11-16T10:38:46.719Z,27.44
2022-11-16T10:40:44.806Z,27.50
2022-11-16T10:42:43.218Z,27.50
2022-11-16T10:44:42.102Z,27.50
2022-11-16T10:46:40.567Z,27.56
2022-11-16T10:48:39.826Z,27.56
2022-11-16T10:50:37.936Z,27.63
2022-11-16T10:52:36.169Z,27.63
2022-11-16T10:54:34.208Z,27.63
2022-11-16T10:56:34.347Z,28.13
2022-11-16T10:58:32.422Z,29.00
2022-11-16T11:00:30.587Z,29.31
2022-11-16T11:02:28.707Z,29.56
2022-11-16T11:04:27.003Z,29.13
2022-11-16T11:06:25.175Z,28.44
2022-11-16T11:08:23.627Z,28.38
2022-11-16T11:10:21.848Z,28.31
2022-11-16T11:12:37.679Z,28.25
2022-11-16T11:14:36.380Z,28.19
2022-11-16T11:16:34.612Z,28.19
2022-11-16T11:18:32.624Z,28.13
2022-11-16T11:20:31.268Z,28.06
2022-11-16T11:22:29.349Z,28.06
2022-11-16T11:24:45.296Z,28.00
2022-11-16T11:26:43.906Z,28.00
2022-11-16T11:28:41.904Z,27.94
2022-11-16T11:30:39.884Z,27.94
2022-11-16T11:32:37.875Z,27.88
2022-11-16T11:34:35.951Z,27.88
2022-11-16T11:36:34.176Z,27.81
2022-11-16T11:38:32.290Z,27.81
2022-11-16T11:40:30.587Z,27.81
2022-11-16T11:42:28.882Z,27.81
2022-11-16T11:44:26.869Z,27.75
2022-11-16T11:46:40.196Z,27.75
2022-11-16T11:48:47.820Z,27.75
2022-11-16T11:50:46.103Z,27.75
2022-11-16T11:52:44.423Z,27.69
2022-11-16T11:54:45.869Z,27.69
2022-11-16T11:56:44.619Z,27.69
2022-11-16T11:58:42.610Z,27.63
2022-11-16T12:00:40.630Z,27.63
2022-11-16T12:02:39.039Z,27.63
2022-11-16T12:04:37.112Z,27.63
2022-11-16T12:06:38.682Z,27.63
2022-11-16T12:08:39.221Z,27.63
2022-11-16T12:10:37.252Z,27.63
2022-11-16T12:12:35.282Z,27.63
2022-11-16T12:14:33.286Z,27.63
2022-11-16T12:16:31.318Z,27.63
2022-11-16T12:18:29.287Z,27.56
2022-11-16T12:20:27.518Z,27.56
2022-11-16T12:22:26.050Z,27.56
2022-11-16T12:24:24.254Z,27.56
2022-11-16T12:26:22.639Z,27.56
2022-11-16T12:28:20.616Z,27.56
2022-11-16T12:30:18.874Z,27.56
2022-11-16T12:32:17.292Z,27.56
2022-11-16T12:34:15.297Z,28.06
2022-11-16T12:36:13.283Z,29.19
2022-11-16T12:38:11.329Z,29.50
2022-11-16T12:40:09.320Z,29.69
2022-11-16T12:42:07.472Z,29.25
2022-11-16T12:44:05.509Z,28.06
2022-11-16T12:46:03.964Z,27.38
2022-11-16T12:48:02.184Z,27.13
2022-11-16T12:50:00.250Z,26.94
2022-11-16T12:51:58.527Z,26.75
2022-11-16T12:53:56.758Z,26.56
2022-11-16T12:55:54.798Z,26.38
2022-11-16T12:57:52.877Z,26.19
2022-11-16T12:59:50.879Z,26.00
2022-11-16T13:36:45.376Z,25.81
2022-11-16T13:38:43.691Z,26.38
2022-11-16T13:40:41.962Z,26.25
2022-11-16T13:42:40.020Z,26.06
2022-11-16T13:44:38.143Z,25.88
2022-11-16T13:46:56.812Z,25.69
2022-11-16T13:48:54.197Z,25.50
2022-11-16T13:50:52.571Z,25.38
2022-11-16T13:55:08.641Z,26.94
2022-11-16T13:57:06.907Z,26.63
2022-11-16T13:59:05.206Z,26.69
2022-11-16T14:01:03.758Z,26.69
2022-11-16T14:03:02.012Z,26.75
2022-11-16T14:05:00.085Z,26.81
2022-11-16T14:06:58.423Z,26.94
2022-11-16T14:08:56.576Z,27.00
2022-11-16T14:10:54.600Z,27.13
2022-11-16T14:12:53.156Z,27.19
2022-11-16T14:14:51.190Z,27.25
2022-11-16T14:16:49.220Z,27.31
2022-11-16T14:18:47.592Z,27.38
2022-11-16T14:20:45.638Z,27.38
2022-11-16T14:22:44.534Z,27.50
2022-11-16T14:24:42.943Z,27.50
2022-11-16T14:26:41.257Z,27.56
2022-11-16T14:28:39.234Z,27.63
2022-11-16T14:30:37.271Z,27.69
2022-11-16T14:32:39.781Z,27.69
2022-11-16T14:34:40.945Z,27.75
2022-11-16T14:36:38.995Z,27.75
2022-11-16T14:38:37.048Z,27.81
2022-11-16T14:40:35.064Z,27.81
2022-11-16T14:42:48.170Z,27.81
2022-11-16T14:44:51.302Z,27.81
2022-11-16T14:46:49.652Z,27.81
2022-11-16T14:48:47.683Z,27.81
2022-11-16T14:50:45.749Z,27.81
2022-11-16T14:52:44.461Z,27.75
2022-11-16T14:54:42.527Z,27.75
2022-11-16T14:56:40.609Z,27.75
2022-11-16T14:58:38.938Z,27.75
2022-11-16T15:00:36.994Z,27.75
2022-11-16T15:02:35.002Z,27.75
2022-11-16T15:04:33.310Z,27.75
2022-11-16T15:06:31.351Z,27.75
2022-11-16T15:08:29.407Z,27.75
2022-11-16T15:10:27.423Z,27.75
2022-11-16T15:12:43.214Z,27.75
2022-11-16T15:14:41.268Z,27.75
2022-11-16T15:16:39.427Z,27.69
2022-11-16T15:18:37.490Z,27.75
2022-11-16T15:20:35.515Z,27.75
2022-11-16T15:22:33.531Z,29.13
2022-11-16T15:24:32.345Z,29.50
2022-11-16T15:26:30.614Z,29.75
2022-11-16T15:28:28.959Z,29.56
2022-11-16T15:30:27.211Z,28.88
2022-11-16T15:32:25.255Z,27.56
2022-11-16T15:34:23.300Z,27.31
2022-11-16T15:36:21.504Z,27.13
2022-11-16T15:38:19.552Z,26.94
2022-11-16T15:40:17.589Z,26.75
2022-11-16T15:42:15.710Z,26.56
2022-11-16T15:44:15.470Z,26.38
2022-11-16T15:46:13.771Z,26.19
2022-11-16T15:48:12.027Z,26.06
2022-11-16T15:50:10.080Z,25.88
2022-11-16T15:52:08.109Z,25.75
2022-11-16T15:54:06.386Z,26.44
2022-11-16T15:56:04.563Z,27.06
2022-11-16T15:58:03.789Z,26.88
2022-11-16T16:00:02.088Z,27.00
2022-11-16T16:02:00.309Z,26.06
2022-11-16T16:03:59.040Z,25.75
2022-11-16T16:05:57.748Z,25.63
2022-11-16T16:07:59.480Z,25.50
2022-11-16T16:09:57.546Z,25.31
2022-11-16T16:11:55.840Z,25.19
2022-11-16T16:13:53.840Z,25.13
2022-11-16T16:15:51.872Z,25.00
2022-11-16T16:17:50.830Z,24.88
2022-11-16T16:19:48.889Z,24.75
2022-11-16T16:21:46.899Z,24.69
2022-11-16T16:23:45.254Z,24.56
2022-11-16T16:25:49.041Z,24.50
2022-11-16T16:27:48.465Z,24.38
2022-11-16T16:29:46.518Z,24.31
2022-11-16T16:31:44.565Z,24.19
2022-11-16T16:33:42.600Z,24.13
2022-11-16T16:35:40.704Z,24.06
2022-11-16T16:37:38.974Z,24.00
2022-11-16T16:39:38.690Z,23.94
2022-11-16T16:41:36.723Z,23.88
2022-11-16T16:43:35.103Z,23.81
2022-11-16T16:45:33.508Z,23.75
2022-11-16T16:47:31.546Z,23.69
2022-11-16T16:49:29.666Z,23.63
2022-11-16T16:51:27.708Z,23.56
2022-11-16T16:53:26.154Z,23.50
2022-11-16T16:55:24.178Z,23.44
2022-11-16T16:57:22.387Z,23.38
2022-11-16T16:59:20.492Z,23.31
2022-11-16T17:01:18.553Z,23.31
2022-11-16T17:03:17.013Z,23.25
2022-11-16T17:05:15.355Z,23.19
2022-11-16T17:07:13.476Z,23.13
2022-11-16T17:09:11.558Z,23.13
2022-11-16T17:11:10.037Z,23.06
2022-11-16T17:13:08.401Z,23.00
2022-11-16T17:15:06.460Z,23.00
2022-11-16T17:17:04.496Z,22.94
2022-11-16T17:19:02.845Z,22.94
2022-11-16T17:21:01.115Z,22.88
2022-11-16T17:22:59.420Z,22.81
2022-11-16T17:24:57.461Z,22.81
2022-11-16T17:26:55.528Z,22.75
2022-11-16T17:28:53.504Z,22.75
2022-11-16T17:30:51.566Z,22.69
2022-11-16T17:32:49.813Z,22.69
2022-11-16T17:34:48.078Z,22.63
2022-11-16T17:36:46.112Z,22.63
2022-11-16T17:38:44.379Z,22.56
2022-11-16T17:40:42.780Z,22.56
2022-11-16T17:42:40.790Z,22.50
2022-11-16T17:44:38.787Z,22.50
2022-11-16T17:46:37.035Z,22.50
2022-11-16T17:48:35.488Z,22.44
2022-11-16T17:50:33.546Z,22.44
2022-11-16T17:52:31.595Z,22.38
2022-11-16T17:54:29.610Z,22.38
2022-11-16T17:56:27.811Z,22.31
2022-11-16T17:58:25.876Z,22.31
2022-11-16T18:00:24.154Z,22.31
2022-11-16T18:02:22.201Z,22.25
2022-11-16T18:04:20.270Z,22.25
2022-11-16T18:06:18.344Z,22.25
2022-11-16T18:08:16.433Z,22.19
2022-11-16T18:10:19.078Z,22.19
2022-11-16T18:12:18.578Z,22.19
2022-11-16T18:14:16.841Z,22.13
2022-11-16T18:16:14.888Z,22.13
2022-11-16T18:18:14.077Z,22.13
2022-11-16T18:20:12.097Z,22.06
2022-11-16T18:22:10.138Z,22.06
2022-11-16T18:24:09.548Z,22.06
2022-11-16T18:26:07.874Z,22.00
2022-11-16T18:28:05.929Z,22.00
2022-11-16T18:30:03.951Z,22.00
2022-11-16T18:32:01.958Z,22.00
2022-11-16T18:34:00.189Z,21.94
2022-11-16T18:35:58.209Z,21.94
2022-11-16T18:37:56.259Z,21.94
2022-11-16T18:39:54.308Z,21.88
2022-11-16T18:41:55.075Z,21.88
2022-11-16T18:43:53.394Z,21.88
2022-11-16T18:45:51.664Z,21.81
2022-11-16T18:47:49.689Z,21.81
2022-11-16T18:49:47.760Z,21.81
2022-11-16T18:51:45.815Z,21.81
2022-11-16T18:53:43.859Z,21.75
2022-11-16T18:55:41.922Z,21.75
2022-11-16T18:57:39.950Z,21.75
2022-11-16T18:59:38.119Z,21.75
2022-11-16T19:01:36.123Z,21.75
2022-11-16T19:03:34.476Z,21.69
2022-11-16T19:05:32.653Z,21.69
2022-11-16T19:07:30.840Z,21.69
2022-11-16T19:09:29.161Z,21.63
2022-11-16T19:11:27.191Z,21.63
2022-11-16T19:13:25.366Z,21.63
2022-11-16T19:15:25.433Z,21.63
2022-11-16T19:17:24.848Z,21.56
2022-11-16T19:19:22.925Z,21.56
2022-11-16T19:21:22.085Z,21.56
2022-11-16T19:23:20.173Z,22.88
2022-11-16T19:25:18.309Z,22.94
2022-11-16T19:27:16.728Z,23.06
2022-11-16T19:29:14.991Z,23.25
2022-11-16T19:31:13.358Z,23.44
2022-11-16T19:33:11.537Z,23.63
2022-11-16T19:35:11.059Z,23.75
2022-11-16T19:37:09.259Z,23.88
2022-11-16T19:39:07.276Z,24.00
2022-11-16T19:41:05.366Z,24.13
2022-11-16T19:43:03.314Z,24.19
2022-11-16T19:45:01.379Z,24.25
2022-11-16T19:46:59.645Z,24.38
2022-11-16T19:48:57.681Z,24.44
2022-11-16T19:50:55.717Z,23.63
2022-11-16T19:52:53.713Z,23.38
2022-11-16T19:54:51.804Z,23.31
2022-11-16T19:56:54.918Z,23.19
2022-11-16T19:58:53.351Z,23.13
2022-11-16T20:00:51.394Z,23.00
2022-11-16T20:02:49.472Z,22.94
2022-11-16T20:04:47.524Z,22.88
2022-11-16T20:06:45.592Z,22.75
2022-11-16T20:08:43.798Z,22.69
2022-11-16T20:10:41.818Z,22.63
2022-11-16T20:12:39.849Z,22.56
2022-11-16T20:14:37.889Z,22.50
2022-11-16T20:16:39.083Z,22.44
2022-11-16T20:18:37.642Z,22.38
2022-11-16T20:20:35.906Z,22.31
2022-11-16T20:22:34.213Z,22.25
2022-11-16T20:24:32.221Z,22.19
2022-11-16T20:26:30.259Z,22.13
2022-11-16T20:28:28.423Z,22.13
2022-11-16T20:30:26.866Z,22.06
2022-11-16T20:32:25.543Z,22.00
2022-11-16T20:34:23.837Z,21.94
2022-11-16T20:36:22.828Z,21.94
2022-11-16T20:38:20.914Z,21.88
2022-11-16T20:40:18.964Z,21.88
2022-11-16T20:42:17.216Z,21.81
2022-11-16T20:44:17.744Z,21.81
2022-11-16T20:46:16.026Z,21.75
2022-11-16T20:48:14.355Z,21.69
2022-11-16T20:50:12.374Z,21.69
2022-11-16T20:52:10.650Z,21.63
2022-11-16T20:54:08.885Z,21.63
2022-11-16T20:56:07.674Z,21.63
2022-11-16T20:58:05.943Z,21.56
2022-11-16T21:00:05.261Z,21.56
2022-11-16T21:02:03.466Z,21.50
2022-11-16T21:04:01.509Z,21.50
2022-11-16T21:05:59.841Z,23.06
2022-11-16T21:07:57.915Z,22.88
2022-11-16T21:10:13.590Z,23.00
2022-11-16T21:12:29.555Z,23.31
2022-11-16T21:14:28.006Z,23.44
2022-11-16T21:16:26.296Z,23.56
2022-11-16T21:18:30.366Z,23.69
2022-11-16T21:20:29.075Z,23.88
2022-11-16T21:22:31.138Z,23.94
2022-11-16T21:24:32.410Z,24.06
2022-11-16T21:26:30.763Z,24.13
2022-11-16T21:28:29.556Z,24.19
2022-11-16T21:30:27.676Z,24.25
2022-11-16T21:32:26.469Z,24.38
2022-11-16T21:34:24.515Z,24.06
2022-11-16T21:36:22.714Z,23.38
2022-11-16T21:38:20.916Z,23.25
2022-11-16T21:40:19.157Z,23.13
2022-11-16T21:42:17.392Z,23.06
2022-11-16T21:44:15.418Z,23.00
2022-11-16T21:46:13.837Z,22.88
2022-11-16T21:48:12.146Z,22.81
2022-11-16T21:50:31.288Z,22.69
2022-11-16T21:52:28.905Z,22.63
2022-11-16T21:54:46.993Z,22.56
2022-11-16T21:56:45.641Z,22.44
2022-11-16T21:58:44.112Z,22.38
2022-11-16T22:00:42.466Z,22.31
2022-11-16T22:02:40.694Z,22.25
2022-11-16T22:04:56.666Z,22.19
2022-11-16T22:07:12.521Z,22.13
2022-11-16T22:09:10.576Z,22.06
2022-11-16T22:11:08.782Z,22.06
2022-11-16T22:13:06.804Z,22.00
2022-11-16T22:15:05.092Z,21.94
2022-11-16T22:17:03.368Z,21.88
2022-11-16T22:19:01.418Z,21.88
2022-11-16T22:20:59.454Z,21.81
2022-11-16T22:22:57.644Z,21.75
2022-11-16T22:24:55.719Z,21.75
2022-11-16T22:26:54.182Z,21.69
2022-11-16T22:28:53.402Z,21.69
2022-11-16T22:30:52.405Z,21.63
2022-11-16T22:32:50.514Z,21.63
2022-11-16T22:34:49.041Z,21.56
2022-11-16T22:36:47.271Z,21.56
2022-11-16T22:38:45.518Z,21.50
2022-11-16T22:40:43.924Z,21.44
2022-11-16T22:42:41.954Z,23.13
2022-11-16T22:44:39.947Z,22.81
2022-11-16T22:46:37.988Z,23.00
2022-11-16T22:48:36.002Z,23.25
2022-11-16T22:50:34.103Z,23.38
2022-11-16T22:52:32.150Z,23.50
2022-11-16T22:54:30.941Z,23.63
2022-11-16T22:56:28.964Z,23.75
2022-11-16T22:58:26.972Z,23.88
2022-11-16T23:00:25.012Z,24.00
